sensor_id;sensor_type;location;lat;lon;timestamp;temperature;humidity
16271;DHT22;8243;49.048;8.396;2023-08-06T00:01:51;16.60;99.90
16271;DHT22;8243;49.048;8.396;2023-08-06T00:04:17;16.60;99.90
16271;DHT22;8243;49.048;8.396;2023-08-06T00:06:42;16.60;99.90
16271;DHT22;8243;49.048;8.396;2023-08-06T00:09:08;16.50;99.90
16271;DHT22;8243;49.048;8.396;2023-08-06T00:11:34;16.60;99.90
16271;DHT22;8243;49.048;8.396;2023-08-06T00:13:59;16.50;99.90
16271;DHT22;8243;49.048;8.396;2023-08-06T00:16:25;16.50;99.90
16271;DHT22;8243;49.048;8.396;2023-08-06T00:18:50;16.50;99.90
16271;DHT22;8243;49.048;8.396;2023-08-06T00:21:16;16.50;99.90
16271;DHT22;8243;49.048;8.396;2023-08-06T00:23:41;16.40;99.90
16271;DHT22;8243;49.048;8.396;2023-08-06T00:26:07;16.20;99.90
16271;DHT22;8243;49.048;8.396;2023-08-06T00:28:32;16.10;99.90
16271;DHT22;8243;49.048;8.396;2023-08-06T00:30:58;16.10;99.90
16271;DHT22;8243;49.048;8.396;2023-08-06T00:33:24;16.00;99.90
16271;DHT22;8243;49.048;8.396;2023-08-06T00:35:50;15.90;99.90
16271;DHT22;8243;49.048;8.396;2023-08-06T00:38:15;15.70;99.90
16271;DHT22;8243;49.048;8.396;2023-08-06T00:40:41;15.80;99.90
16271;DHT22;8243;49.048;8.396;2023-08-06T00:43:06;15.80;99.90
16271;DHT22;8243;49.048;8.396;2023-08-06T00:45:35;15.90;99.90
16271;DHT22;8243;49.048;8.396;2023-08-06T00:48:01;16.00;99.90
16271;DHT22;8243;49.048;8.396;2023-08-06T00:50:27;16.10;99.90
16271;DHT22;8243;49.048;8.396;2023-08-06T00:52:53;16.10;99.90
16271;DHT22;8243;49.048;8.396;2023-08-06T00:55:19;16.10;99.90
16271;DHT22;8243;49.048;8.396;2023-08-06T00:57:45;16.20;99.90
16271;DHT22;8243;49.048;8.396;2023-08-06T01:00:11;16.20;99.90
16271;DHT22;8243;49.048;8.396;2023-08-06T01:02:37;16.20;99.90
16271;DHT22;8243;49.048;8.396;2023-08-06T01:05:03;16.10;99.90
16271;DHT22;8243;49.048;8.396;2023-08-06T01:10:40;16.00;99.90
16271;DHT22;8243;49.048;8.396;2023-08-06T01:15:49;15.90;99.90
16271;DHT22;8243;49.048;8.396;2023-08-06T01:18:15;15.90;99.90
16271;DHT22;8243;49.048;8.396;2023-08-06T01:20:41;15.90;99.90
16271;DHT22;8243;49.048;8.396;2023-08-06T01:23:07;15.90;99.90
16271;DHT22;8243;49.048;8.396;2023-08-06T01:28:38;16.00;99.90
16271;DHT22;8243;49.048;8.396;2023-08-06T01:31:08;16.00;99.90
16271;DHT22;8243;49.048;8.396;2023-08-06T01:33:38;16.10;99.90
16271;DHT22;8243;49.048;8.396;2023-08-06T01:36:06;16.20;99.90
16271;DHT22;8243;49.048;8.396;2023-08-06T01:38:32;16.20;99.90
16271;DHT22;8243;49.048;8.396;2023-08-06T01:40:57;16.30;99.90
16271;DHT22;8243;49.048;8.396;2023-08-06T01:43:23;16.30;99.90
16271;DHT22;8243;49.048;8.396;2023-08-06T01:45:48;16.30;99.90
16271;DHT22;8243;49.048;8.396;2023-08-06T01:48:14;16.30;99.90
16271;DHT22;8243;49.048;8.396;2023-08-06T01:50:39;16.30;99.90
16271;DHT22;8243;49.048;8.396;2023-08-06T01:53:05;16.30;99.90
16271;DHT22;8243;49.048;8.396;2023-08-06T01:55:30;16.30;99.90
16271;DHT22;8243;49.048;8.396;2023-08-06T01:57:56;16.40;99.90
16271;DHT22;8243;49.048;8.396;2023-08-06T02:00:21;16.30;99.90
16271;DHT22;8243;49.048;8.396;2023-08-06T02:02:47;16.40;99.90
16271;DHT22;8243;49.048;8.396;2023-08-06T02:05:12;16.30;99.90
16271;DHT22;8243;49.048;8.396;2023-08-06T02:07:38;16.30;99.90
16271;DHT22;8243;49.048;8.396;2023-08-06T02:10:04;16.30;99.90
16271;DHT22;8243;49.048;8.396;2023-08-06T02:12:29;16.30;99.90
16271;DHT22;8243;49.048;8.396;2023-08-06T02:14:55;16.30;99.90
16271;DHT22;8243;49.048;8.396;2023-08-06T02:17:20;16.30;99.90
16271;DHT22;8243;49.048;8.396;2023-08-06T02:19:46;16.30;99.90
16271;DHT22;8243;49.048;8.396;2023-08-06T02:22:11;16.30;99.90
16271;DHT22;8243;49.048;8.396;2023-08-06T02:24:37;16.30;99.90
16271;DHT22;8243;49.048;8.396;2023-08-06T02:27:02;16.30;99.90
16271;DHT22;8243;49.048;8.396;2023-08-06T02:29:28;16.30;99.90
16271;DHT22;8243;49.048;8.396;2023-08-06T02:31:53;16.20;99.90
16271;DHT22;8243;49.048;8.396;2023-08-06T02:34:19;16.20;99.90
16271;DHT22;8243;49.048;8.396;2023-08-06T02:36:45;16.10;99.90
16271;DHT22;8243;49.048;8.396;2023-08-06T02:39:10;16.20;99.90
16271;DHT22;8243;49.048;8.396;2023-08-06T02:41:36;16.20;99.90
16271;DHT22;8243;49.048;8.396;2023-08-06T02:44:01;16.20;99.90
16271;DHT22;8243;49.048;8.396;2023-08-06T02:46:27;16.20;99.90
16271;DHT22;8243;49.048;8.396;2023-08-06T02:48:54;16.10;99.90
16271;DHT22;8243;49.048;8.396;2023-08-06T02:51:19;16.10;99.90
16271;DHT22;8243;49.048;8.396;2023-08-06T02:53:45;16.10;99.90
16271;DHT22;8243;49.048;8.396;2023-08-06T02:56:10;16.10;99.90
16271;DHT22;8243;49.048;8.396;2023-08-06T02:58:36;16.10;99.90
16271;DHT22;8243;49.048;8.396;2023-08-06T03:01:04;16.00;99.90
16271;DHT22;8243;49.048;8.396;2023-08-06T03:03:31;15.90;99.90
16271;DHT22;8243;49.048;8.396;2023-08-06T03:05:57;15.90;99.90
16271;DHT22;8243;49.048;8.396;2023-08-06T03:08:23;15.80;99.90
16271;DHT22;8243;49.048;8.396;2023-08-06T03:10:49;15.70;99.90
16271;DHT22;8243;49.048;8.396;2023-08-06T03:13:18;15.70;99.90
16271;DHT22;8243;49.048;8.396;2023-08-06T03:15:52;15.70;99.90
16271;DHT22;8243;49.048;8.396;2023-08-06T03:18:18;15.70;99.90
16271;DHT22;8243;49.048;8.396;2023-08-06T03:20:44;15.70;99.90
16271;DHT22;8243;49.048;8.396;2023-08-06T03:23:10;15.70;99.90
16271;DHT22;8243;49.048;8.396;2023-08-06T03:25:35;15.70;99.90
16271;DHT22;8243;49.048;8.396;2023-08-06T03:28:02;15.60;99.90
16271;DHT22;8243;49.048;8.396;2023-08-06T03:30:27;15.50;99.90
16271;DHT22;8243;49.048;8.396;2023-08-06T03:32:53;15.40;99.90
16271;DHT22;8243;49.048;8.396;2023-08-06T03:35:18;15.40;99.90
16271;DHT22;8243;49.048;8.396;2023-08-06T03:37:44;15.30;99.90
16271;DHT22;8243;49.048;8.396;2023-08-06T03:40:10;15.30;99.90
16271;DHT22;8243;49.048;8.396;2023-08-06T03:42:35;15.30;99.90
16271;DHT22;8243;49.048;8.396;2023-08-06T03:45:01;15.30;99.90
16271;DHT22;8243;49.048;8.396;2023-08-06T03:47:27;15.30;99.90
16271;DHT22;8243;49.048;8.396;2023-08-06T03:49:52;15.30;99.90
16271;DHT22;8243;49.048;8.396;2023-08-06T03:52:18;15.40;99.90
16271;DHT22;8243;49.048;8.396;2023-08-06T03:54:43;15.40;99.90
16271;DHT22;8243;49.048;8.396;2023-08-06T03:57:09;15.40;99.90
16271;DHT22;8243;49.048;8.396;2023-08-06T03:59:35;15.40;99.90
16271;DHT22;8243;49.048;8.396;2023-08-06T04:02:01;15.40;99.90
16271;DHT22;8243;49.048;8.396;2023-08-06T04:04:27;15.40;99.90
16271;DHT22;8243;49.048;8.396;2023-08-06T04:06:53;15.40;99.90
16271;DHT22;8243;49.048;8.396;2023-08-06T04:09:19;15.50;99.90
16271;DHT22;8243;49.048;8.396;2023-08-06T04:11:44;15.50;99.90
16271;DHT22;8243;49.048;8.396;2023-08-06T04:14:10;15.40;99.90
16271;DHT22;8243;49.048;8.396;2023-08-06T04:16:35;15.40;99.90
16271;DHT22;8243;49.048;8.396;2023-08-06T04:19:02;15.40;99.90
16271;DHT22;8243;49.048;8.396;2023-08-06T04:21:28;15.40;99.90
16271;DHT22;8243;49.048;8.396;2023-08-06T04:23:53;15.40;99.90
16271;DHT22;8243;49.048;8.396;2023-08-06T04:26:19;15.40;99.90
16271;DHT22;8243;49.048;8.396;2023-08-06T04:28:44;15.40;99.90
16271;DHT22;8243;49.048;8.396;2023-08-06T04:31:10;15.40;99.90
16271;DHT22;8243;49.048;8.396;2023-08-06T04:33:36;15.40;99.90
16271;DHT22;8243;49.048;8.396;2023-08-06T04:36:01;15.40;99.90
16271;DHT22;8243;49.048;8.396;2023-08-06T04:38:27;15.40;99.90
16271;DHT22;8243;49.048;8.396;2023-08-06T04:40:53;15.40;99.90
16271;DHT22;8243;49.048;8.396;2023-08-06T04:43:19;15.40;99.90
16271;DHT22;8243;49.048;8.396;2023-08-06T04:45:52;15.40;99.90
16271;DHT22;8243;49.048;8.396;2023-08-06T04:48:18;15.40;99.90
16271;DHT22;8243;49.048;8.396;2023-08-06T04:50:49;15.50;99.90
16271;DHT22;8243;49.048;8.396;2023-08-06T04:53:15;15.40;99.90
16271;DHT22;8243;49.048;8.396;2023-08-06T04:55:40;15.40;99.90
16271;DHT22;8243;49.048;8.396;2023-08-06T04:58:06;15.40;99.90
16271;DHT22;8243;49.048;8.396;2023-08-06T05:00:32;15.40;99.90
16271;DHT22;8243;49.048;8.396;2023-08-06T05:02:59;15.60;99.90
16271;DHT22;8243;49.048;8.396;2023-08-06T05:05:26;15.70;99.90
16271;DHT22;8243;49.048;8.396;2023-08-06T05:07:51;15.70;99.90
16271;DHT22;8243;49.048;8.396;2023-08-06T05:10:17;15.90;99.90
16271;DHT22;8243;49.048;8.396;2023-08-06T05:12:42;15.90;99.90
16271;DHT22;8243;49.048;8.396;2023-08-06T05:15:08;16.00;99.90
16271;DHT22;8243;49.048;8.396;2023-08-06T05:17:34;16.00;99.90
16271;DHT22;8243;49.048;8.396;2023-08-06T05:20:00;16.00;99.90
16271;DHT22;8243;49.048;8.396;2023-08-06T05:22:25;15.90;99.90
16271;DHT22;8243;49.048;8.396;2023-08-06T05:24:51;15.90;99.90
16271;DHT22;8243;49.048;8.396;2023-08-06T05:27:17;15.80;99.90
16271;DHT22;8243;49.048;8.396;2023-08-06T05:29:44;15.70;99.90
16271;DHT22;8243;49.048;8.396;2023-08-06T05:32:10;15.60;99.90
16271;DHT22;8243;49.048;8.396;2023-08-06T05:34:36;15.70;99.90
16271;DHT22;8243;49.048;8.396;2023-08-06T05:37:02;15.60;99.90
16271;DHT22;8243;49.048;8.396;2023-08-06T05:39:28;15.50;99.90
16271;DHT22;8243;49.048;8.396;2023-08-06T05:41:54;15.50;99.90
16271;DHT22;8243;49.048;8.396;2023-08-06T05:44:20;15.40;99.90
16271;DHT22;8243;49.048;8.396;2023-08-06T05:46:46;15.20;99.90
16271;DHT22;8243;49.048;8.396;2023-08-06T05:49:11;15.20;99.90
16271;DHT22;8243;49.048;8.396;2023-08-06T05:51:39;15.20;99.90
16271;DHT22;8243;49.048;8.396;2023-08-06T05:54:04;15.10;99.90
16271;DHT22;8243;49.048;8.396;2023-08-06T05:56:30;15.10;99.90
16271;DHT22;8243;49.048;8.396;2023-08-06T05:58:55;15.20;99.90
16271;DHT22;8243;49.048;8.396;2023-08-06T06:01:21;15.20;99.90
16271;DHT22;8243;49.048;8.396;2023-08-06T06:03:47;15.30;99.90
16271;DHT22;8243;49.048;8.396;2023-08-06T06:06:13;15.40;99.90
16271;DHT22;8243;49.048;8.396;2023-08-06T06:08:38;15.40;99.90
16271;DHT22;8243;49.048;8.396;2023-08-06T06:11:04;15.50;99.90
16271;DHT22;8243;49.048;8.396;2023-08-06T06:13:29;15.60;99.90
16271;DHT22;8243;49.048;8.396;2023-08-06T06:15:55;15.50;99.90
16271;DHT22;8243;49.048;8.396;2023-08-06T06:18:21;15.60;99.90
16271;DHT22;8243;49.048;8.396;2023-08-06T06:20:47;15.70;99.90
16271;DHT22;8243;49.048;8.396;2023-08-06T06:23:13;15.60;99.90
16271;DHT22;8243;49.048;8.396;2023-08-06T06:25:49;15.60;99.90
16271;DHT22;8243;49.048;8.396;2023-08-06T06:28:15;15.60;99.90
16271;DHT22;8243;49.048;8.396;2023-08-06T06:30:42;15.70;99.90
16271;DHT22;8243;49.048;8.396;2023-08-06T06:33:07;15.60;99.90
16271;DHT22;8243;49.048;8.396;2023-08-06T06:35:33;15.50;99.90
16271;DHT22;8243;49.048;8.396;2023-08-06T06:37:59;15.50;99.90
16271;DHT22;8243;49.048;8.396;2023-08-06T06:40:25;15.50;99.90
16271;DHT22;8243;49.048;8.396;2023-08-06T06:42:51;15.40;99.90
16271;DHT22;8243;49.048;8.396;2023-08-06T06:45:17;15.40;99.90
16271;DHT22;8243;49.048;8.396;2023-08-06T06:47:42;15.30;99.90
16271;DHT22;8243;49.048;8.396;2023-08-06T06:50:08;15.30;99.90
16271;DHT22;8243;49.048;8.396;2023-08-06T06:52:34;15.40;99.90
16271;DHT22;8243;49.048;8.396;2023-08-06T06:55:00;15.40;99.90
16271;DHT22;8243;49.048;8.396;2023-08-06T06:57:25;15.40;99.90
16271;DHT22;8243;49.048;8.396;2023-08-06T06:59:51;15.40;99.90
16271;DHT22;8243;49.048;8.396;2023-08-06T07:02:16;15.40;99.90
16271;DHT22;8243;49.048;8.396;2023-08-06T07:04:42;15.50;99.90
16271;DHT22;8243;49.048;8.396;2023-08-06T07:07:07;15.60;99.90
16271;DHT22;8243;49.048;8.396;2023-08-06T07:09:33;15.60;99.90
16271;DHT22;8243;49.048;8.396;2023-08-06T07:11:58;15.50;99.90
16271;DHT22;8243;49.048;8.396;2023-08-06T07:14:28;15.60;99.90
16271;DHT22;8243;49.048;8.396;2023-08-06T07:16:54;15.50;99.90
16271;DHT22;8243;49.048;8.396;2023-08-06T07:19:19;15.60;99.90
16271;DHT22;8243;49.048;8.396;2023-08-06T07:21:45;15.60;99.90
16271;DHT22;8243;49.048;8.396;2023-08-06T07:24:11;15.60;99.90
16271;DHT22;8243;49.048;8.396;2023-08-06T07:26:37;15.60;99.90
16271;DHT22;8243;49.048;8.396;2023-08-06T07:29:03;15.70;99.90
16271;DHT22;8243;49.048;8.396;2023-08-06T07:31:28;15.70;99.90
16271;DHT22;8243;49.048;8.396;2023-08-06T07:33:54;15.80;99.90
16271;DHT22;8243;49.048;8.396;2023-08-06T07:36:19;15.90;99.90
16271;DHT22;8243;49.048;8.396;2023-08-06T07:38:45;15.90;99.90
16271;DHT22;8243;49.048;8.396;2023-08-06T07:41:11;15.90;99.90
16271;DHT22;8243;49.048;8.396;2023-08-06T07:43:37;16.00;99.90
16271;DHT22;8243;49.048;8.396;2023-08-06T07:46:03;16.00;99.90
16271;DHT22;8243;49.048;8.396;2023-08-06T07:48:29;15.90;99.90
16271;DHT22;8243;49.048;8.396;2023-08-06T07:50:55;15.90;99.90
16271;DHT22;8243;49.048;8.396;2023-08-06T07:53:24;15.80;99.90
16271;DHT22;8243;49.048;8.396;2023-08-06T07:55:53;15.80;99.90
16271;DHT22;8243;49.048;8.396;2023-08-06T07:58:19;15.80;99.90
16271;DHT22;8243;49.048;8.396;2023-08-06T08:00:46;15.80;99.90
16271;DHT22;8243;49.048;8.396;2023-08-06T08:03:12;15.80;99.90
16271;DHT22;8243;49.048;8.396;2023-08-06T08:05:44;15.80;99.90
16271;DHT22;8243;49.048;8.396;2023-08-06T08:08:10;15.80;99.90
16271;DHT22;8243;49.048;8.396;2023-08-06T08:10:36;15.80;99.90
16271;DHT22;8243;49.048;8.396;2023-08-06T08:13:03;15.90;99.90
16271;DHT22;8243;49.048;8.396;2023-08-06T08:15:35;15.90;99.90
16271;DHT22;8243;49.048;8.396;2023-08-06T08:18:01;15.90;99.90
16271;DHT22;8243;49.048;8.396;2023-08-06T08:20:27;15.80;99.90
16271;DHT22;8243;49.048;8.396;2023-08-06T08:23:00;15.70;99.90
16271;DHT22;8243;49.048;8.396;2023-08-06T08:25:27;15.70;99.90
16271;DHT22;8243;49.048;8.396;2023-08-06T08:27:54;15.70;99.90
16271;DHT22;8243;49.048;8.396;2023-08-06T08:30:22;15.70;99.90
16271;DHT22;8243;49.048;8.396;2023-08-06T08:32:53;15.80;99.90
16271;DHT22;8243;49.048;8.396;2023-08-06T08:35:18;16.00;99.90
16271;DHT22;8243;49.048;8.396;2023-08-06T08:37:44;16.10;99.90
16271;DHT22;8243;49.048;8.396;2023-08-06T08:40:09;16.10;99.90
16271;DHT22;8243;49.048;8.396;2023-08-06T08:42:36;16.00;99.90
16271;DHT22;8243;49.048;8.396;2023-08-06T08:45:04;16.00;99.90
16271;DHT22;8243;49.048;8.396;2023-08-06T08:47:31;15.90;99.90
16271;DHT22;8243;49.048;8.396;2023-08-06T08:49:58;15.90;99.90
16271;DHT22;8243;49.048;8.396;2023-08-06T08:52:25;16.00;99.90
16271;DHT22;8243;49.048;8.396;2023-08-06T08:54:53;16.10;99.90
16271;DHT22;8243;49.048;8.396;2023-08-06T08:57:20;16.30;99.90
16271;DHT22;8243;49.048;8.396;2023-08-06T08:59:46;16.60;99.90
16271;DHT22;8243;49.048;8.396;2023-08-06T09:02:13;16.90;99.90
16271;DHT22;8243;49.048;8.396;2023-08-06T09:04:41;17.10;99.90
16271;DHT22;8243;49.048;8.396;2023-08-06T09:07:08;17.20;99.90
16271;DHT22;8243;49.048;8.396;2023-08-06T09:09:35;17.00;99.90
16271;DHT22;8243;49.048;8.396;2023-08-06T09:12:12;16.80;99.90
16271;DHT22;8243;49.048;8.396;2023-08-06T09:14:37;16.70;99.90
16271;DHT22;8243;49.048;8.396;2023-08-06T09:17:04;16.70;99.90
16271;DHT22;8243;49.048;8.396;2023-08-06T09:19:30;17.00;99.90
16271;DHT22;8243;49.048;8.396;2023-08-06T09:21:56;17.30;99.90
16271;DHT22;8243;49.048;8.396;2023-08-06T09:24:22;17.60;99.90
16271;DHT22;8243;49.048;8.396;2023-08-06T09:26:47;17.90;99.90
16271;DHT22;8243;49.048;8.396;2023-08-06T09:29:13;17.80;99.90
16271;DHT22;8243;49.048;8.396;2023-08-06T09:31:47;17.70;99.90
16271;DHT22;8243;49.048;8.396;2023-08-06T09:36:46;17.60;99.90
16271;DHT22;8243;49.048;8.396;2023-08-06T09:39:16;17.60;99.90
16271;DHT22;8243;49.048;8.396;2023-08-06T09:41:43;17.50;99.90
16271;DHT22;8243;49.048;8.396;2023-08-06T09:44:20;17.30;99.90
16271;DHT22;8243;49.048;8.396;2023-08-06T09:46:55;17.00;99.90
16271;DHT22;8243;49.048;8.396;2023-08-06T09:49:25;16.90;99.90
16271;DHT22;8243;49.048;8.396;2023-08-06T09:51:51;16.80;99.90
16271;DHT22;8243;49.048;8.396;2023-08-06T09:54:19;16.90;99.90
16271;DHT22;8243;49.048;8.396;2023-08-06T09:56:45;16.90;99.90
16271;DHT22;8243;49.048;8.396;2023-08-06T09:59:10;16.80;99.90
16271;DHT22;8243;49.048;8.396;2023-08-06T10:01:39;16.90;99.90
16271;DHT22;8243;49.048;8.396;2023-08-06T10:04:05;16.80;99.90
16271;DHT22;8243;49.048;8.396;2023-08-06T10:06:34;16.80;99.90
16271;DHT22;8243;49.048;8.396;2023-08-06T10:09:01;16.70;99.90
16271;DHT22;8243;49.048;8.396;2023-08-06T10:11:29;16.60;99.90
16271;DHT22;8243;49.048;8.396;2023-08-06T10:14:02;16.50;99.90
16271;DHT22;8243;49.048;8.396;2023-08-06T10:16:31;16.40;99.90
16271;DHT22;8243;49.048;8.396;2023-08-06T10:18:57;16.40;99.90
16271;DHT22;8243;49.048;8.396;2023-08-06T10:21:24;16.40;99.90
16271;DHT22;8243;49.048;8.396;2023-08-06T10:23:56;16.40;99.90
16271;DHT22;8243;49.048;8.396;2023-08-06T10:26:29;16.20;99.90
16271;DHT22;8243;49.048;8.396;2023-08-06T10:28:54;16.10;99.90
16271;DHT22;8243;49.048;8.396;2023-08-06T10:34:05;16.00;99.90
16271;DHT22;8243;49.048;8.396;2023-08-06T10:36:31;16.00;99.90
16271;DHT22;8243;49.048;8.396;2023-08-06T10:38:58;16.00;99.90
16271;DHT22;8243;49.048;8.396;2023-08-06T10:41:29;15.90;99.90
16271;DHT22;8243;49.048;8.396;2023-08-06T10:44:08;15.90;99.90
16271;DHT22;8243;49.048;8.396;2023-08-06T10:46:34;15.90;99.90
16271;DHT22;8243;49.048;8.396;2023-08-06T10:48:59;15.80;99.90
16271;DHT22;8243;49.048;8.396;2023-08-06T10:51:26;15.80;99.90
16271;DHT22;8243;49.048;8.396;2023-08-06T10:53:52;15.80;99.90
16271;DHT22;8243;49.048;8.396;2023-08-06T10:56:25;15.80;99.90
16271;DHT22;8243;49.048;8.396;2023-08-06T10:58:54;15.90;99.90
16271;DHT22;8243;49.048;8.396;2023-08-06T11:01:19;15.90;99.90
16271;DHT22;8243;49.048;8.396;2023-08-06T11:03:47;16.00;99.90
16271;DHT22;8243;49.048;8.396;2023-08-06T11:06:21;15.90;99.90
16271;DHT22;8243;49.048;8.396;2023-08-06T11:08:52;15.80;99.90
16271;DHT22;8243;49.048;8.396;2023-08-06T11:11:22;15.80;99.90
16271;DHT22;8243;49.048;8.396;2023-08-06T11:13:49;15.70;99.90
16271;DHT22;8243;49.048;8.396;2023-08-06T11:16:17;15.70;99.90
16271;DHT22;8243;49.048;8.396;2023-08-06T11:18:43;15.70;99.90
16271;DHT22;8243;49.048;8.396;2023-08-06T11:21:11;15.60;99.90
16271;DHT22;8243;49.048;8.396;2023-08-06T11:23:37;15.70;99.90
16271;DHT22;8243;49.048;8.396;2023-08-06T11:26:03;15.60;99.90
16271;DHT22;8243;49.048;8.396;2023-08-06T11:28:29;15.60;99.90
16271;DHT22;8243;49.048;8.396;2023-08-06T11:30:55;15.60;99.90
16271;DHT22;8243;49.048;8.396;2023-08-06T11:33:26;15.60;99.90
16271;DHT22;8243;49.048;8.396;2023-08-06T11:35:53;15.60;99.90
16271;DHT22;8243;49.048;8.396;2023-08-06T11:38:19;15.60;99.90
16271;DHT22;8243;49.048;8.396;2023-08-06T11:40:45;15.70;99.90
16271;DHT22;8243;49.048;8.396;2023-08-06T11:43:12;15.80;99.90
16271;DHT22;8243;49.048;8.396;2023-08-06T11:45:38;15.80;99.90
16271;DHT22;8243;49.048;8.396;2023-08-06T11:48:05;15.90;99.90
16271;DHT22;8243;49.048;8.396;2023-08-06T11:50:30;16.00;99.90
16271;DHT22;8243;49.048;8.396;2023-08-06T11:52:57;16.00;99.90
16271;DHT22;8243;49.048;8.396;2023-08-06T11:55:24;16.00;99.90
16271;DHT22;8243;49.048;8.396;2023-08-06T11:57:50;16.10;99.90
16271;DHT22;8243;49.048;8.396;2023-08-06T12:00:17;16.20;99.90
16271;DHT22;8243;49.048;8.396;2023-08-06T12:02:44;16.20;99.90
16271;DHT22;8243;49.048;8.396;2023-08-06T12:07:41;16.40;99.90
16271;DHT22;8243;49.048;8.396;2023-08-06T12:10:07;16.40;99.90
16271;DHT22;8243;49.048;8.396;2023-08-06T12:12:34;16.60;99.90
16271;DHT22;8243;49.048;8.396;2023-08-06T12:15:00;16.80;99.90
16271;DHT22;8243;49.048;8.396;2023-08-06T12:17:26;16.70;99.90
16271;DHT22;8243;49.048;8.396;2023-08-06T12:19:52;16.70;99.90
16271;DHT22;8243;49.048;8.396;2023-08-06T12:22:18;16.80;99.90
16271;DHT22;8243;49.048;8.396;2023-08-06T12:24:44;16.80;99.90
16271;DHT22;8243;49.048;8.396;2023-08-06T12:27:11;16.70;99.90
16271;DHT22;8243;49.048;8.396;2023-08-06T12:29:40;16.60;99.90
16271;DHT22;8243;49.048;8.396;2023-08-06T12:32:06;16.70;99.90
16271;DHT22;8243;49.048;8.396;2023-08-06T12:34:31;16.70;99.90
16271;DHT22;8243;49.048;8.396;2023-08-06T12:36:57;16.80;99.90
16271;DHT22;8243;49.048;8.396;2023-08-06T12:39:22;16.80;99.90
16271;DHT22;8243;49.048;8.396;2023-08-06T12:41:55;16.90;99.90
16271;DHT22;8243;49.048;8.396;2023-08-06T12:44:23;16.90;99.90
16271;DHT22;8243;49.048;8.396;2023-08-06T12:46:48;16.90;99.90
16271;DHT22;8243;49.048;8.396;2023-08-06T12:49:14;16.90;99.90
16271;DHT22;8243;49.048;8.396;2023-08-06T12:51:40;16.90;99.90
16271;DHT22;8243;49.048;8.396;2023-08-06T12:54:05;16.90;99.90
16271;DHT22;8243;49.048;8.396;2023-08-06T12:56:31;16.90;99.90
16271;DHT22;8243;49.048;8.396;2023-08-06T12:58:56;17.00;99.90
16271;DHT22;8243;49.048;8.396;2023-08-06T13:01:22;17.10;99.90
16271;DHT22;8243;49.048;8.396;2023-08-06T13:03:47;17.40;99.90
16271;DHT22;8243;49.048;8.396;2023-08-06T13:06:13;17.70;99.70
16271;DHT22;8243;49.048;8.396;2023-08-06T13:08:39;17.80;95.60
16271;DHT22;8243;49.048;8.396;2023-08-06T13:11:04;17.90;92.50
16271;DHT22;8243;49.048;8.396;2023-08-06T13:13:30;17.90;92.50
16271;DHT22;8243;49.048;8.396;2023-08-06T13:15:56;18.30;91.30
16271;DHT22;8243;49.048;8.396;2023-08-06T13:18:21;18.40;88.20
16271;DHT22;8243;49.048;8.396;2023-08-06T13:20:47;18.50;82.90
16271;DHT22;8243;49.048;8.396;2023-08-06T13:23:15;18.70;83.20
16271;DHT22;8243;49.048;8.396;2023-08-06T13:25:42;18.80;80.30
16271;DHT22;8243;49.048;8.396;2023-08-06T13:28:08;19.00;77.30
16271;DHT22;8243;49.048;8.396;2023-08-06T13:30:33;18.90;74.10
16271;DHT22;8243;49.048;8.396;2023-08-06T13:33:01;18.80;73.50
16271;DHT22;8243;49.048;8.396;2023-08-06T13:35:26;18.70;74.20
16271;DHT22;8243;49.048;8.396;2023-08-06T13:37:52;18.60;72.10
16271;DHT22;8243;49.048;8.396;2023-08-06T13:40:19;18.80;72.20
16271;DHT22;8243;49.048;8.396;2023-08-06T13:42:45;18.70;68.50
16271;DHT22;8243;49.048;8.396;2023-08-06T13:45:10;18.70;69.00
16271;DHT22;8243;49.048;8.396;2023-08-06T13:47:36;18.70;70.30
16271;DHT22;8243;49.048;8.396;2023-08-06T13:50:02;18.80;67.30
16271;DHT22;8243;49.048;8.396;2023-08-06T13:52:28;18.70;66.70
16271;DHT22;8243;49.048;8.396;2023-08-06T13:54:54;18.70;66.50
16271;DHT22;8243;49.048;8.396;2023-08-06T13:57:19;18.60;65.90
16271;DHT22;8243;49.048;8.396;2023-08-06T13:59:45;18.60;66.70
16271;DHT22;8243;49.048;8.396;2023-08-06T14:02:11;18.40;67.60
16271;DHT22;8243;49.048;8.396;2023-08-06T14:04:36;18.20;66.50
16271;DHT22;8243;49.048;8.396;2023-08-06T14:07:05;18.10;65.10
16271;DHT22;8243;49.048;8.396;2023-08-06T14:09:31;18.20;65.40
16271;DHT22;8243;49.048;8.396;2023-08-06T14:11:56;18.30;64.60
16271;DHT22;8243;49.048;8.396;2023-08-06T14:14:22;18.60;64.50
16271;DHT22;8243;49.048;8.396;2023-08-06T14:16:52;18.90;58.80
16271;DHT22;8243;49.048;8.396;2023-08-06T14:19:20;19.00;53.70
16271;DHT22;8243;49.048;8.396;2023-08-06T14:21:51;19.10;49.10
16271;DHT22;8243;49.048;8.396;2023-08-06T14:24:17;19.20;49.30
16271;DHT22;8243;49.048;8.396;2023-08-06T14:26:43;19.40;45.90
16271;DHT22;8243;49.048;8.396;2023-08-06T14:29:08;19.70;42.60
16271;DHT22;8243;49.048;8.396;2023-08-06T14:31:34;19.70;39.60
16271;DHT22;8243;49.048;8.396;2023-08-06T14:33:59;19.60;38.50
16271;DHT22;8243;49.048;8.396;2023-08-06T14:36:26;19.40;39.70
16271;DHT22;8243;49.048;8.396;2023-08-06T14:38:51;19.10;40.30
16271;DHT22;8243;49.048;8.396;2023-08-06T14:41:17;19.00;42.70
16271;DHT22;8243;49.048;8.396;2023-08-06T14:43:43;18.90;44.40
16271;DHT22;8243;49.048;8.396;2023-08-06T14:46:08;18.80;43.70
16271;DHT22;8243;49.048;8.396;2023-08-06T14:48:34;18.60;46.00
16271;DHT22;8243;49.048;8.396;2023-08-06T14:50:59;18.50;45.60
16271;DHT22;8243;49.048;8.396;2023-08-06T14:53:25;18.40;45.70
16271;DHT22;8243;49.048;8.396;2023-08-06T14:55:50;18.30;44.90
16271;DHT22;8243;49.048;8.396;2023-08-06T14:58:16;18.50;44.50
16271;DHT22;8243;49.048;8.396;2023-08-06T15:00:42;18.70;43.10
16271;DHT22;8243;49.048;8.396;2023-08-06T15:03:07;19.20;42.20
16271;DHT22;8243;49.048;8.396;2023-08-06T15:05:33;19.70;39.90
16271;DHT22;8243;49.048;8.396;2023-08-06T15:07:59;19.60;37.90
16271;DHT22;8243;49.048;8.396;2023-08-06T15:10:25;19.40;38.30
16271;DHT22;8243;49.048;8.396;2023-08-06T15:12:50;19.30;39.20
16271;DHT22;8243;49.048;8.396;2023-08-06T15:15:16;18.80;39.60
16271;DHT22;8243;49.048;8.396;2023-08-06T15:17:42;18.60;42.50
16271;DHT22;8243;49.048;8.396;2023-08-06T15:20:08;18.60;42.90
16271;DHT22;8243;49.048;8.396;2023-08-06T15:22:33;18.50;44.10
16271;DHT22;8243;49.048;8.396;2023-08-06T15:25:02;18.40;44.00
16271;DHT22;8243;49.048;8.396;2023-08-06T15:27:29;18.30;46.00
16271;DHT22;8243;49.048;8.396;2023-08-06T15:29:55;18.30;47.50
16271;DHT22;8243;49.048;8.396;2023-08-06T15:32:21;18.10;50.20
16271;DHT22;8243;49.048;8.396;2023-08-06T15:34:48;17.90;52.10
16271;DHT22;8243;49.048;8.396;2023-08-06T15:37:14;17.70;54.60
16271;DHT22;8243;49.048;8.396;2023-08-06T15:39:39;17.50;65.80
16271;DHT22;8243;49.048;8.396;2023-08-06T15:42:06;17.40;74.30
16271;DHT22;8243;49.048;8.396;2023-08-06T15:44:31;17.40;78.30
16271;DHT22;8243;49.048;8.396;2023-08-06T15:46:57;17.40;88.00
16271;DHT22;8243;49.048;8.396;2023-08-06T15:49:22;17.10;94.50
16271;DHT22;8243;49.048;8.396;2023-08-06T15:51:48;17.00;99.50
16271;DHT22;8243;49.048;8.396;2023-08-06T15:54:14;16.80;99.90
16271;DHT22;8243;49.048;8.396;2023-08-06T15:56:39;16.60;99.90